createdAt,value
2023-05-21T00:00:19.109Z,621.00
2023-05-21T00:01:19.136Z,620.00
2023-05-21T00:02:19.194Z,622.00
2023-05-21T00:03:19.241Z,628.00
2023-05-21T00:04:19.212Z,623.00
2023-05-21T00:05:19.207Z,625.00
2023-05-21T00:06:19.249Z,624.00
2023-05-21T00:07:19.233Z,619.00
2023-05-21T00:08:19.238Z,623.00
2023-05-21T00:09:19.254Z,618.00
2023-05-21T00:10:19.264Z,622.00
2023-05-21T00:11:19.273Z,621.00
2023-05-21T00:12:19.277Z,620.00
2023-05-21T00:13:19.272Z,617.00
2023-05-21T00:14:19.266Z,629.00
2023-05-21T00:15:19.269Z,623.00
2023-05-21T00:16:19.334Z,626.00
2023-05-21T00:17:19.310Z,618.00
2023-05-21T00:18:19.298Z,624.00
2023-05-21T00:19:19.363Z,618.00
2023-05-21T00:20:19.345Z,622.00
2023-05-21T00:21:19.367Z,628.00
2023-05-21T00:22:19.378Z,622.00
2023-05-21T00:23:19.448Z,627.00
2023-05-21T00:24:19.432Z,632.00
2023-05-21T00:25:19.464Z,624.00
2023-05-21T00:26:19.496Z,610.00
2023-05-21T00:27:19.523Z,623.00
2023-05-21T00:28:19.519Z,616.00
2023-05-21T00:29:19.512Z,616.00
2023-05-21T00:30:19.510Z,612.00
2023-05-21T00:31:19.558Z,612.00
2023-05-21T00:32:19.522Z,613.00
2023-05-21T00:33:19.512Z,610.00
2023-05-21T00:34:19.539Z,617.00
2023-05-21T00:35:19.561Z,612.00
2023-05-21T00:36:19.572Z,615.00
2023-05-21T00:37:19.549Z,617.00
2023-05-21T00:38:19.553Z,612.00
2023-05-21T00:39:19.553Z,611.00
2023-05-21T00:40:19.579Z,620.00
2023-05-21T00:41:19.610Z,618.00
2023-05-21T00:42:19.624Z,617.00
2023-05-21T00:43:19.641Z,616.00
2023-05-21T00:44:19.689Z,618.00
2023-05-21T00:45:19.683Z,611.00
2023-05-21T00:46:19.854Z,617.00
2023-05-21T00:47:19.759Z,611.00
2023-05-21T00:48:19.800Z,617.00
2023-05-21T00:49:19.826Z,615.00
2023-05-21T00:50:19.868Z,622.00
2023-05-21T00:51:19.898Z,613.00
2023-05-21T00:52:19.953Z,609.00
2023-05-21T00:53:19.991Z,614.00
2023-05-21T00:54:20.072Z,613.00
2023-05-21T00:55:20.100Z,614.00
2023-05-21T00:56:20.149Z,608.00
2023-05-21T00:57:20.153Z,601.00
2023-05-21T00:58:20.190Z,608.00
2023-05-21T00:59:20.187Z,607.00
2023-05-21T01:00:20.236Z,611.00
2023-05-21T01:01:20.316Z,617.00
2023-05-21T01:02:20.335Z,621.00
2023-05-21T01:03:20.334Z,611.00
2023-05-21T01:04:20.295Z,609.00
2023-05-21T01:05:20.349Z,606.00
2023-05-21T01:06:20.356Z,613.00
2023-05-21T01:07:20.397Z,609.00
2023-05-21T01:08:20.392Z,605.00
2023-05-21T01:09:20.428Z,614.00
2023-05-21T01:10:20.448Z,611.00
2023-05-21T01:11:20.483Z,604.00
2023-05-21T01:12:20.504Z,610.00
2023-05-21T01:13:20.510Z,607.00
2023-05-21T01:14:20.508Z,605.00
2023-05-21T01:15:20.501Z,611.00
2023-05-21T01:16:20.547Z,606.00
2023-05-21T01:17:20.574Z,610.00
2023-05-21T01:18:20.612Z,608.00
2023-05-21T01:19:20.610Z,606.00
2023-05-21T01:20:20.585Z,609.00
2023-05-21T01:21:20.603Z,609.00
2023-05-21T01:22:20.616Z,608.00
2023-05-21T01:23:20.634Z,602.00
2023-05-21T01:24:20.695Z,606.00
2023-05-21T01:25:20.725Z,602.00
2023-05-21T01:26:20.732Z,606.00
2023-05-21T01:27:20.760Z,602.00
2023-05-21T01:28:20.814Z,602.00
2023-05-21T01:29:20.842Z,608.00
2023-05-21T01:30:20.872Z,606.00
2023-05-21T01:31:20.874Z,603.00
2023-05-21T01:32:20.916Z,603.00
2023-05-21T01:33:20.993Z,601.00
2023-05-21T01:34:20.922Z,605.00
2023-05-21T01:35:20.986Z,606.00
2023-05-21T01:36:20.982Z,605.00
2023-05-21T01:37:20.965Z,608.00
2023-05-21T01:38:20.999Z,608.00
2023-05-21T01:39:21.007Z,610.00
2023-05-21T01:40:21.004Z,604.00
2023-05-21T01:41:21.041Z,606.00
2023-05-21T01:42:21.029Z,609.00
2023-05-21T01:43:21.042Z,610.00
2023-05-21T01:44:21.048Z,601.00
2023-05-21T01:45:21.055Z,603.00
2023-05-21T01:46:21.075Z,602.00
2023-05-21T01:47:21.174Z,605.00
2023-05-21T01:48:21.079Z,605.00
2023-05-21T01:49:21.078Z,600.00
2023-05-21T01:50:21.152Z,606.00
2023-05-21T01:51:21.147Z,606.00
2023-05-21T01:52:21.185Z,596.00
2023-05-21T01:53:21.195Z,605.00
2023-05-21T01:54:21.226Z,606.00
2023-05-21T01:55:21.221Z,603.00
2023-05-21T01:56:21.229Z,602.00
2023-05-21T01:57:21.293Z,606.00
2023-05-21T01:58:21.260Z,602.00
2023-05-21T01:59:21.334Z,602.00
2023-05-21T02:00:21.303Z,603.00
2023-05-21T02:01:21.349Z,595.00
2023-05-21T02:02:21.362Z,600.00
2023-05-21T02:03:21.516Z,609.00
2023-05-21T02:04:21.378Z,607.00
2023-05-21T02:05:21.408Z,597.00
2023-05-21T02:06:21.441Z,600.00
2023-05-21T02:07:21.451Z,603.00
2023-05-21T02:08:21.497Z,600.00
2023-05-21T02:09:21.515Z,600.00
2023-05-21T02:10:21.581Z,603.00
2023-05-21T02:11:21.521Z,601.00
2023-05-21T02:12:21.530Z,604.00
2023-05-21T02:13:23.547Z,596.00
2023-05-21T02:14:21.558Z,596.00
2023-05-21T02:15:21.551Z,597.00
2023-05-21T02:16:21.611Z,600.00
2023-05-21T02:17:21.533Z,600.00
2023-05-21T02:18:21.526Z,603.00
2023-05-21T02:19:21.600Z,601.00
2023-05-21T02:20:21.531Z,604.00
2023-05-21T02:21:21.509Z,602.00
2023-05-21T02:22:21.495Z,602.00
2023-05-21T02:23:21.498Z,606.00
2023-05-21T02:24:21.589Z,602.00
2023-05-21T02:25:21.497Z,602.00
2023-05-21T02:26:21.480Z,604.00
2023-05-21T02:27:21.468Z,602.00
2023-05-21T02:28:21.469Z,601.00
2023-05-21T02:29:21.452Z,601.00
2023-05-21T02:30:21.449Z,599.00
2023-05-21T02:31:21.464Z,601.00
2023-05-21T02:32:21.516Z,605.00
2023-05-21T02:33:21.422Z,600.00
2023-05-21T02:34:21.535Z,596.00
2023-05-21T02:35:21.412Z,600.00
2023-05-21T02:36:21.425Z,598.00
2023-05-21T02:37:21.398Z,601.00
2023-05-21T02:38:21.394Z,602.00
2023-05-21T02:39:21.386Z,603.00
2023-05-21T02:40:21.388Z,602.00
2023-05-21T02:41:21.372Z,601.00
2023-05-21T02:42:21.393Z,603.00
2023-05-21T02:43:21.355Z,608.00
2023-05-21T02:44:21.362Z,607.00
2023-05-21T02:45:21.373Z,608.00
2023-05-21T02:46:21.357Z,598.00
2023-05-21T02:47:21.326Z,597.00
2023-05-21T02:48:21.378Z,596.00
2023-05-21T02:49:21.309Z,598.00
2023-05-21T02:50:21.312Z,602.00
2023-05-21T02:51:21.304Z,600.00
2023-05-21T02:52:21.306Z,605.00
2023-05-21T02:53:21.285Z,603.00
2023-05-21T02:54:21.276Z,601.00
2023-05-21T02:55:21.292Z,594.00
2023-05-21T02:56:21.282Z,600.00
2023-05-21T02:57:21.269Z,599.00
2023-05-21T02:58:21.241Z,602.00
2023-05-21T02:59:21.278Z,601.00
2023-05-21T03:00:21.247Z,598.00
2023-05-21T03:01:21.295Z,601.00
2023-05-21T03:02:21.326Z,605.00
2023-05-21T03:03:21.293Z,603.00
2023-05-21T03:04:21.219Z,605.00
2023-05-21T03:05:21.213Z,608.00
2023-05-21T03:06:21.190Z,600.00
2023-05-21T03:07:21.195Z,603.00
2023-05-21T03:08:21.189Z,608.00
2023-05-21T03:09:21.170Z,603.00
2023-05-21T03:10:21.190Z,604.00
2023-05-21T03:11:21.157Z,598.00
2023-05-21T03:12:21.163Z,598.00
2023-05-21T03:13:21.205Z,604.00
2023-05-21T03:14:21.148Z,600.00
2023-05-21T03:15:21.139Z,591.00
2023-05-21T03:16:21.184Z,598.00
2023-05-21T03:17:21.126Z,597.00
2023-05-21T03:18:21.108Z,599.00
2023-05-21T03:19:21.164Z,601.00
2023-05-21T03:20:21.102Z,601.00
2023-05-21T03:21:21.095Z,599.00
2023-05-21T03:22:21.108Z,603.00
2023-05-21T03:23:21.082Z,605.00
2023-05-21T03:24:21.072Z,602.00
2023-05-21T03:25:21.071Z,597.00
2023-05-21T03:26:21.081Z,606.00
2023-05-21T03:27:21.052Z,598.00
2023-05-21T03:28:21.099Z,596.00
2023-05-21T03:29:21.046Z,604.00
2023-05-21T03:30:21.060Z,597.00
2023-05-21T03:31:21.063Z,598.00
2023-05-21T03:32:21.174Z,604.00
2023-05-21T03:33:21.059Z,601.00
2023-05-21T03:34:21.020Z,597.00
2023-05-21T03:35:21.031Z,598.00
2023-05-21T03:36:21.016Z,603.00
2023-05-21T03:37:20.986Z,608.00
2023-05-21T03:38:21.021Z,600.00
2023-05-21T03:39:20.992Z,601.00
2023-05-21T03:40:21.020Z,594.00
2023-05-21T03:41:21.003Z,602.00
2023-05-21T03:42:20.999Z,602.00
2023-05-21T03:43:21.003Z,605.00
2023-05-21T03:44:21.011Z,605.00
2023-05-21T03:45:21.062Z,604.00
2023-05-21T03:46:21.017Z,603.00
2023-05-21T03:47:21.065Z,603.00
2023-05-21T03:48:21.007Z,608.00
2023-05-21T03:49:20.996Z,607.00
2023-05-21T03:50:21.003Z,606.00
2023-05-21T03:51:21.020Z,607.00
2023-05-21T03:52:20.994Z,614.00
2023-05-21T03:53:20.983Z,601.00
2023-05-21T03:54:20.996Z,600.00
2023-05-21T03:55:21.055Z,604.00
2023-05-21T03:56:20.989Z,602.00
2023-05-21T03:57:20.995Z,605.00
2023-05-21T03:58:20.992Z,602.00
2023-05-21T03:59:21.002Z,606.00
2023-05-21T04:00:21.039Z,600.00
2023-05-21T04:01:21.056Z,602.00
2023-05-21T04:02:21.164Z,602.00
2023-05-21T04:03:21.171Z,611.00
2023-05-21T04:04:21.161Z,602.00
2023-05-21T04:05:21.129Z,605.00
2023-05-21T04:06:21.095Z,601.00
2023-05-21T04:07:21.104Z,602.00
2023-05-21T04:08:21.129Z,606.00
2023-05-21T04:09:21.100Z,606.00
2023-05-21T04:10:21.135Z,606.00
2023-05-21T04:11:21.111Z,606.00
2023-05-21T04:12:21.153Z,602.00
2023-05-21T04:13:21.133Z,608.00
2023-05-21T04:14:21.141Z,603.00
2023-05-21T04:15:21.192Z,605.00
2023-05-21T04:16:21.207Z,603.00
2023-05-21T04:17:21.303Z,607.00
2023-05-21T04:18:21.165Z,601.00
2023-05-21T04:19:21.276Z,601.00
2023-05-21T04:20:21.203Z,610.00
2023-05-21T04:21:21.171Z,600.00
2023-05-21T04:22:21.184Z,602.00
2023-05-21T04:23:21.202Z,606.00
2023-05-21T04:24:21.219Z,605.00
2023-05-21T04:25:21.240Z,603.00
2023-05-21T04:26:21.206Z,607.00
2023-05-21T04:27:21.244Z,607.00
2023-05-21T04:28:21.251Z,602.00
2023-05-21T04:29:21.277Z,608.00
2023-05-21T04:30:21.239Z,601.00
2023-05-21T04:31:21.290Z,601.00
2023-05-21T04:32:21.270Z,599.00
2023-05-21T04:33:21.282Z,605.00
2023-05-21T04:34:21.248Z,603.00
2023-05-21T04:35:21.240Z,605.00
2023-05-21T04:36:21.246Z,597.00
2023-05-21T04:37:21.235Z,605.00
2023-05-21T04:38:21.257Z,606.00
2023-05-21T04:39:21.248Z,607.00
2023-05-21T04:40:21.272Z,606.00
2023-05-21T04:41:21.729Z,601.00
2023-05-21T04:42:21.248Z,607.00
2023-05-21T04:43:21.261Z,604.00
2023-05-21T04:44:21.306Z,606.00
2023-05-21T04:45:21.401Z,600.00
2023-05-21T04:46:21.296Z,603.00
2023-05-21T04:47:21.306Z,599.00
2023-05-21T04:48:21.295Z,601.00
2023-05-21T04:49:21.296Z,605.00
2023-05-21T04:50:21.326Z,602.00
2023-05-21T04:51:21.307Z,603.00
2023-05-21T04:52:21.333Z,597.00
2023-05-21T04:53:21.338Z,603.00
2023-05-21T04:54:21.339Z,606.00
2023-05-21T04:55:21.389Z,605.00
2023-05-21T04:56:21.377Z,603.00
2023-05-21T04:57:21.368Z,608.00
2023-05-21T04:58:21.373Z,601.00
2023-05-21T04:59:21.379Z,601.00
2023-05-21T05:00:21.379Z,604.00
2023-05-21T05:01:21.577Z,598.00
2023-05-21T05:02:21.441Z,605.00
2023-05-21T05:03:21.454Z,606.00
2023-05-21T05:04:21.387Z,605.00
2023-05-21T05:05:21.417Z,603.00
2023-05-21T05:06:21.460Z,605.00
2023-05-21T05:07:21.403Z,606.00
2023-05-21T05:08:21.399Z,600.00
2023-05-21T05:09:21.418Z,606.00
2023-05-21T05:10:21.427Z,601.00
2023-05-21T05:11:21.426Z,599.00
2023-05-21T05:12:21.406Z,602.00
2023-05-21T05:13:21.429Z,608.00
2023-05-21T05:14:21.433Z,608.00
2023-05-21T05:15:21.443Z,611.00
2023-05-21T05:16:21.431Z,603.00
2023-05-21T05:17:21.409Z,611.00
2023-05-21T05:18:21.418Z,607.00
2023-05-21T05:19:21.470Z,611.00
2023-05-21T05:20:21.447Z,607.00
2023-05-21T05:21:21.429Z,608.00
2023-05-21T05:22:21.427Z,611.00
2023-05-21T05:23:21.410Z,610.00
2023-05-21T05:24:21.422Z,612.00
2023-05-21T05:25:21.422Z,606.00
2023-05-21T05:26:21.462Z,606.00
2023-05-21T05:27:21.421Z,613.00
2023-05-21T05:28:21.423Z,609.00
2023-05-21T05:29:21.413Z,619.00
2023-05-21T05:30:21.424Z,619.00
2023-05-21T05:31:21.511Z,616.00
2023-05-21T05:32:21.476Z,621.00
2023-05-21T05:33:21.426Z,616.00
2023-05-21T05:34:21.415Z,622.00
2023-05-21T05:35:21.478Z,635.00
2023-05-21T05:36:21.429Z,637.00
2023-05-21T05:37:21.458Z,641.00
2023-05-21T05:38:21.441Z,643.00
2023-05-21T05:39:21.443Z,645.00
2023-05-21T05:40:21.465Z,648.00
2023-05-21T05:41:21.480Z,647.00
2023-05-21T05:42:21.440Z,658.00
2023-05-21T05:43:21.426Z,659.00
2023-05-21T05:44:21.431Z,673.00
2023-05-21T05:45:21.443Z,693.00
2023-05-21T05:46:21.479Z,691.00
2023-05-21T05:47:21.447Z,708.00
2023-05-21T05:48:21.425Z,732.00
2023-05-21T05:49:21.426Z,739.00
2023-05-21T05:50:21.450Z,756.00
2023-05-21T05:51:21.509Z,766.00
2023-05-21T05:52:21.433Z,774.00
2023-05-21T05:53:21.447Z,788.00
2023-05-21T05:54:21.431Z,800.00
2023-05-21T05:55:21.434Z,795.00
2023-05-21T05:56:21.453Z,793.00
2023-05-21T05:57:21.463Z,794.00
2023-05-21T05:58:21.437Z,795.00
2023-05-21T05:59:21.440Z,791.00
2023-05-21T06:00:21.444Z,789.00
2023-05-21T06:01:21.449Z,793.00
2023-05-21T06:02:21.556Z,791.00
2023-05-21T06:03:21.526Z,788.00
2023-05-21T06:04:21.450Z,784.00
2023-05-21T06:05:21.511Z,771.00
2023-05-21T06:06:21.556Z,783.00
2023-05-21T06:07:21.480Z,783.00
2023-05-21T06:08:21.482Z,783.00
2023-05-21T06:09:21.521Z,772.00
2023-05-21T06:10:21.581Z,751.00
2023-05-21T06:11:21.513Z,739.00
2023-05-21T06:12:21.527Z,760.00
2023-05-21T06:13:21.522Z,743.00
2023-05-21T06:14:21.536Z,754.00
2023-05-21T06:15:21.522Z,756.00
2023-05-21T06:16:21.567Z,750.00
2023-05-21T06:17:21.609Z,729.00
2023-05-21T06:18:21.541Z,726.00
2023-05-21T06:19:21.558Z,719.00
2023-05-21T06:20:21.561Z,724.00
2023-05-21T06:21:21.538Z,736.00
2023-05-21T06:22:23.067Z,736.00
2023-05-21T06:23:21.562Z,735.00
2023-05-21T06:24:21.536Z,718.00
2023-05-21T06:25:21.541Z,717.00
2023-05-21T06:26:21.504Z,720.00
2023-05-21T06:27:21.528Z,713.00
2023-05-21T06:28:21.480Z,710.00
2023-05-21T06:29:21.516Z,704.00
2023-05-21T06:30:21.481Z,703.00
2023-05-21T06:31:21.482Z,691.00
2023-05-21T06:32:21.523Z,677.00
2023-05-21T06:33:21.556Z,688.00
2023-05-21T06:34:21.457Z,696.00
2023-05-21T06:35:21.461Z,689.00
2023-05-21T06:36:21.428Z,690.00
2023-05-21T06:37:21.438Z,666.00
2023-05-21T06:38:21.414Z,676.00
2023-05-21T06:39:21.437Z,657.00
2023-05-21T06:40:21.481Z,662.00
2023-05-21T06:41:21.396Z,666.00
2023-05-21T06:42:21.420Z,682.00
2023-05-21T06:43:21.389Z,667.00
2023-05-21T06:44:21.372Z,664.00
2023-05-21T06:45:21.424Z,668.00
2023-05-21T06:46:21.408Z,663.00
2023-05-21T06:47:21.366Z,675.00
2023-05-21T06:48:21.382Z,666.00
2023-05-21T06:49:21.345Z,665.00
2023-05-21T06:50:21.372Z,663.00
2023-05-21T06:51:21.351Z,661.00
2023-05-21T06:52:21.315Z,665.00
2023-05-21T06:53:21.314Z,655.00
2023-05-21T06:54:21.312Z,663.00
2023-05-21T06:55:21.333Z,653.00
2023-05-21T06:56:21.314Z,656.00
2023-05-21T06:57:21.288Z,654.00
2023-05-21T06:58:21.289Z,644.00
2023-05-21T06:59:21.285Z,603.00
2023-05-21T07:00:21.312Z,581.00
2023-05-21T07:01:21.284Z,522.00
2023-05-21T07:02:21.309Z,502.00
2023-05-21T07:03:21.368Z,499.00
2023-05-21T07:04:21.266Z,513.00
2023-05-21T07:05:21.253Z,562.00
2023-05-21T07:06:21.246Z,544.00
2023-05-21T07:07:21.229Z,517.00
2023-05-21T07:08:21.231Z,500.00
2023-05-21T07:09:21.230Z,501.00
2023-05-21T07:10:21.217Z,511.00
2023-05-21T07:11:21.221Z,518.00
2023-05-21T07:12:21.196Z,510.00
2023-05-21T07:13:21.201Z,501.00
2023-05-21T07:14:21.195Z,509.00
2023-05-21T07:15:21.180Z,521.00
2023-05-21T07:16:21.182Z,535.00
2023-05-21T07:17:21.179Z,538.00
2023-05-21T07:18:21.180Z,512.00
2023-05-21T07:19:21.211Z,544.00
2023-05-21T07:20:21.148Z,518.00
2023-05-21T07:21:21.146Z,500.00
2023-05-21T07:22:21.149Z,501.00
2023-05-21T07:23:21.142Z,524.00
2023-05-21T07:24:21.150Z,523.00
2023-05-21T07:25:21.133Z,529.00
2023-05-21T07:26:21.117Z,528.00
2023-05-21T07:27:25.876Z,515.00
2023-05-21T07:28:22.104Z,515.00
2023-05-21T07:29:21.097Z,495.00
2023-05-21T07:30:21.096Z,454.00
2023-05-21T07:31:21.090Z,426.00
2023-05-21T07:32:21.086Z,413.00
2023-05-21T07:33:21.062Z,441.00
2023-05-21T07:34:21.059Z,501.00
2023-05-21T07:35:21.059Z,496.00
2023-05-21T07:36:21.062Z,528.00
2023-05-21T07:37:21.086Z,544.00
2023-05-21T07:38:21.032Z,539.00
2023-05-21T07:39:21.025Z,551.00
2023-05-21T07:40:21.041Z,543.00
2023-05-21T07:41:21.105Z,562.00
2023-05-21T07:42:21.010Z,571.00
2023-05-21T07:43:21.022Z,571.00
2023-05-21T07:44:20.997Z,580.00
2023-05-21T07:45:21.001Z,570.00
2023-05-21T07:46:21.039Z,578.00
2023-05-21T07:47:21.018Z,575.00
2023-05-21T07:48:20.990Z,552.00
2023-05-21T07:49:20.963Z,534.00
2023-05-21T07:50:20.970Z,509.00
2023-05-21T07:51:20.976Z,521.00
2023-05-21T07:52:21.072Z,527.00
2023-05-21T07:53:21.001Z,555.00
2023-05-21T07:54:21.009Z,553.00
2023-05-21T07:55:21.026Z,558.00
2023-05-21T07:56:21.047Z,570.00
2023-05-21T07:57:21.075Z,635.00
2023-05-21T07:58:21.086Z,675.00
2023-05-21T07:59:21.087Z,716.00
2023-05-21T08:00:21.095Z,786.00
2023-05-21T08:01:21.112Z,842.00
2023-05-21T08:02:21.153Z,863.00
2023-05-21T08:03:21.204Z,847.00
2023-05-21T08:04:21.205Z,800.00
2023-05-21T08:05:21.142Z,791.00
2023-05-21T08:06:21.164Z,846.00
2023-05-21T08:07:21.178Z,852.00
2023-05-21T08:08:21.200Z,722.00
2023-05-21T08:09:21.220Z,662.00
2023-05-21T08:10:21.262Z,738.00
2023-05-21T08:11:21.280Z,765.00
2023-05-21T08:12:21.282Z,771.00
2023-05-21T08:13:21.297Z,753.00
2023-05-21T08:14:21.318Z,793.00
2023-05-21T08:15:21.326Z,820.00
2023-05-21T08:16:21.391Z,666.00
2023-05-21T08:17:21.390Z,610.00
2023-05-21T08:18:21.409Z,555.00
2023-05-21T08:19:21.473Z,497.00
2023-05-21T08:20:21.452Z,500.00
2023-05-21T08:21:21.460Z,501.00
2023-05-21T08:22:21.473Z,504.00
2023-05-21T08:23:21.502Z,500.00
2023-05-21T08:24:21.519Z,500.00
2023-05-21T08:25:21.552Z,510.00
2023-05-21T08:26:21.575Z,503.00
2023-05-21T08:27:21.590Z,529.00
2023-05-21T08:28:21.617Z,583.00
2023-05-21T08:29:21.622Z,556.00
2023-05-21T08:30:21.664Z,499.00
2023-05-21T08:31:21.740Z,503.00
2023-05-21T08:32:21.742Z,491.00
2023-05-21T08:33:21.715Z,500.00
2023-05-21T08:34:21.753Z,523.00
2023-05-21T08:35:21.769Z,497.00
2023-05-21T08:36:21.789Z,502.00
2023-05-21T08:37:21.813Z,501.00
2023-05-21T08:38:21.819Z,500.00
2023-05-21T08:39:21.840Z,543.00
2023-05-21T08:40:21.936Z,573.00
2023-05-21T08:41:21.868Z,555.00
2023-05-21T08:42:32.773Z,657.00
2023-05-21T08:43:22.868Z,658.00
2023-05-21T08:44:21.876Z,659.00
2023-05-21T08:45:21.851Z,663.00
2023-05-21T08:46:21.965Z,660.00
2023-05-21T08:47:21.860Z,642.00
2023-05-21T08:48:21.839Z,641.00
2023-05-21T08:49:21.823Z,687.00
2023-05-21T08:50:21.813Z,802.00
2023-05-21T08:51:21.857Z,616.00
2023-05-21T08:52:21.825Z,618.00
2023-05-21T08:53:28.151Z,672.00
2023-05-21T08:54:22.805Z,672.00
2023-05-21T08:55:21.783Z,609.00
2023-05-21T08:56:21.814Z,638.00
2023-05-21T08:57:21.771Z,591.00
2023-05-21T08:58:21.780Z,642.00
2023-05-21T08:59:21.784Z,750.00
2023-05-21T09:00:21.757Z,639.00
2023-05-21T09:01:23.394Z,570.00
2023-05-21T09:02:21.799Z,585.00
2023-05-21T09:03:21.836Z,558.00
2023-05-21T09:04:22.092Z,614.00
2023-05-21T09:05:21.720Z,594.00
2023-05-21T09:06:21.718Z,500.00
2023-05-21T09:07:21.715Z,500.00
2023-05-21T09:08:21.706Z,590.00
2023-05-21T09:09:21.722Z,503.00
2023-05-21T09:10:21.698Z,513.00
2023-05-21T09:11:21.681Z,574.00
2023-05-21T09:12:21.684Z,604.00
2023-05-21T09:13:21.672Z,688.00
2023-05-21T09:14:21.655Z,865.00
2023-05-21T09:15:21.657Z,1091.00
2023-05-21T09:16:21.716Z,1194.00
2023-05-21T09:17:21.643Z,1271.00
2023-05-21T09:18:21.632Z,1331.00
2023-05-21T09:19:21.663Z,1446.00
2023-05-21T09:20:21.615Z,1466.00
2023-05-21T09:21:21.650Z,1384.00
2023-05-21T09:22:21.603Z,1369.00
2023-05-21T09:23:21.618Z,1419.00
2023-05-21T09:24:21.603Z,1401.00
2023-05-21T09:25:21.607Z,1399.00
2023-05-21T09:26:21.591Z,1407.00
2023-05-21T09:27:21.599Z,1472.00
2023-05-21T09:28:21.563Z,1506.00
2023-05-21T09:29:21.563Z,1535.00
2023-05-21T09:30:26.013Z,1581.00
2023-05-21T09:31:22.619Z,1583.00
2023-05-21T09:32:21.533Z,1592.00
2023-05-21T09:33:21.535Z,1613.00
2023-05-21T09:34:21.540Z,1630.00
2023-05-21T09:35:21.527Z,1656.00
2023-05-21T09:36:21.513Z,1670.00
2023-05-21T09:37:27.605Z,1661.00
2023-05-21T09:38:22.529Z,1662.00
2023-05-21T09:39:21.503Z,1661.00
2023-05-21T09:40:21.489Z,1645.00
2023-05-21T09:41:22.342Z,1543.00
2023-05-21T09:42:21.473Z,1491.00
2023-05-21T09:43:21.476Z,1435.00
2023-05-21T09:44:21.472Z,1423.00
2023-05-21T09:45:21.528Z,1428.00
2023-05-21T09:46:21.490Z,1411.00
2023-05-21T09:47:21.526Z,1384.00
2023-05-21T09:48:21.446Z,1396.00
2023-05-21T09:49:21.439Z,1411.00
2023-05-21T09:50:21.427Z,1439.00
2023-05-21T09:51:21.429Z,1454.00
2023-05-21T09:52:21.420Z,1450.00
2023-05-21T09:53:21.404Z,1478.00
2023-05-21T09:54:21.397Z,1436.00
2023-05-21T09:55:21.392Z,1466.00
2023-05-21T09:56:21.397Z,1549.00
2023-05-21T09:57:21.381Z,1618.00
2023-05-21T09:58:21.399Z,1658.00
2023-05-21T09:59:21.381Z,1644.00
2023-05-21T10:00:21.373Z,1659.00
2023-05-21T10:01:21.358Z,1720.00
2023-05-21T10:02:21.465Z,1728.00
2023-05-21T10:03:21.408Z,1670.00
2023-05-21T10:04:21.368Z,1641.00
2023-05-21T10:05:21.322Z,1670.00
2023-05-21T10:06:21.309Z,1739.00
2023-05-21T10:07:21.307Z,1785.00
2023-05-21T10:08:21.302Z,1795.00
2023-05-21T10:09:21.306Z,1808.00
2023-05-21T10:10:21.317Z,1774.00
2023-05-21T10:11:21.281Z,1722.00
2023-05-21T10:12:21.284Z,1645.00
2023-05-21T10:13:21.282Z,1646.00
2023-05-21T10:14:21.280Z,1637.00
2023-05-21T10:15:21.252Z,1653.00
2023-05-21T10:16:21.301Z,1637.00
2023-05-21T10:17:21.275Z,1644.00
2023-05-21T10:18:21.242Z,1649.00
2023-05-21T10:19:21.307Z,1654.00
2023-05-21T10:20:21.232Z,1641.00
2023-05-21T10:21:21.212Z,1646.00
2023-05-21T10:22:21.230Z,1639.00
2023-05-21T10:23:21.224Z,1664.00
2023-05-21T10:24:21.219Z,1672.00
2023-05-21T10:25:21.207Z,1694.00
2023-05-21T10:26:21.236Z,1653.00
2023-05-21T10:27:21.221Z,1653.00
2023-05-21T10:28:21.238Z,1611.00
2023-05-21T10:29:21.247Z,1613.00
2023-05-21T10:30:21.241Z,1607.00
2023-05-21T10:31:21.256Z,1563.00
2023-05-21T10:32:21.315Z,1539.00
2023-05-21T10:33:21.301Z,1526.00
2023-05-21T10:34:21.252Z,1523.00
2023-05-21T10:35:21.251Z,1520.00
2023-05-21T10:36:21.252Z,1515.00
2023-05-21T10:37:21.252Z,1524.00
2023-05-21T10:38:21.249Z,1512.00
2023-05-21T10:39:21.250Z,1514.00
2023-05-21T10:40:21.263Z,1562.00
2023-05-21T10:41:21.269Z,1595.00
2023-05-21T10:42:21.265Z,1607.00
2023-05-21T10:43:21.257Z,1643.00
2023-05-21T10:44:21.267Z,1685.00
2023-05-21T10:45:21.264Z,1668.00
2023-05-21T10:46:21.274Z,1703.00
2023-05-21T10:47:21.279Z,1684.00
2023-05-21T10:48:21.302Z,1688.00
2023-05-21T10:49:21.289Z,1593.00
2023-05-21T10:50:21.297Z,1493.00
2023-05-21T10:51:21.315Z,1516.00
2023-05-21T10:52:21.325Z,1553.00
2023-05-21T10:53:21.354Z,1580.00
2023-05-21T10:54:21.358Z,1611.00
2023-05-21T10:55:21.375Z,1676.00
2023-05-21T10:56:21.388Z,1691.00
2023-05-21T10:57:21.413Z,1695.00
2023-05-21T10:58:21.427Z,1672.00
2023-05-21T10:59:21.442Z,1723.00
2023-05-21T11:00:21.480Z,1727.00
2023-05-21T11:01:21.605Z,1747.00
2023-05-21T11:02:21.566Z,1703.00
2023-05-21T11:03:21.615Z,1669.00
2023-05-21T11:04:21.605Z,1612.00
2023-05-21T11:05:21.612Z,1584.00
2023-05-21T11:06:21.640Z,1556.00
2023-05-21T11:07:21.696Z,1546.00
2023-05-21T11:08:21.719Z,1558.00
2023-05-21T11:09:21.738Z,1555.00
2023-05-21T11:10:21.774Z,1561.00
2023-05-21T11:11:21.848Z,1585.00
2023-05-21T11:12:21.950Z,1588.00
2023-05-21T11:13:21.890Z,1599.00
2023-05-21T11:14:21.891Z,1629.00
2023-05-21T11:15:21.927Z,1632.00
2023-05-21T11:16:22.083Z,1650.00
2023-05-21T11:17:22.021Z,1664.00
2023-05-21T11:18:21.984Z,1659.00
2023-05-21T11:19:22.066Z,1698.00
2023-05-21T11:20:22.061Z,1663.00
2023-05-21T11:21:22.069Z,1630.00
2023-05-21T11:22:22.126Z,1662.00
2023-05-21T11:23:22.137Z,1694.00
2023-05-21T11:24:22.143Z,1683.00
2023-05-21T11:25:22.272Z,1691.00
2023-05-21T11:26:22.204Z,1674.00
2023-05-21T11:27:22.179Z,1687.00
2023-05-21T11:28:22.249Z,1693.00
2023-05-21T11:29:22.234Z,1712.00
2023-05-21T11:30:22.250Z,1730.00
2023-05-21T11:31:22.357Z,1726.00
2023-05-21T11:32:22.326Z,1743.00
2023-05-21T11:33:22.364Z,1749.00
2023-05-21T11:34:22.386Z,1761.00
2023-05-21T11:35:22.398Z,1768.00
2023-05-21T11:36:22.421Z,1760.00
2023-05-21T11:37:22.414Z,1758.00
2023-05-21T11:38:22.435Z,1748.00
2023-05-21T11:39:22.465Z,1741.00
2023-05-21T11:40:22.513Z,1730.00
2023-05-21T11:41:22.532Z,1716.00
2023-05-21T11:42:22.555Z,1722.00
2023-05-21T11:43:22.584Z,1732.00
2023-05-21T11:44:22.614Z,1747.00
2023-05-21T11:45:22.660Z,1757.00
2023-05-21T11:46:22.729Z,1750.00
2023-05-21T11:47:22.837Z,1789.00
2023-05-21T11:48:25.014Z,1780.00
2023-05-21T11:49:22.774Z,1815.00
2023-05-21T11:50:22.742Z,1859.00
2023-05-21T11:51:22.743Z,1848.00
2023-05-21T11:52:22.742Z,1859.00
2023-05-21T11:53:22.731Z,1855.00
2023-05-21T11:54:22.735Z,1852.00
2023-05-21T11:55:22.718Z,1827.00
2023-05-21T11:56:22.713Z,1827.00
2023-05-21T11:57:22.716Z,1836.00
2023-05-21T11:58:22.698Z,1836.00
2023-05-21T11:59:22.694Z,1809.00
2023-05-21T12:00:22.686Z,1842.00
2023-05-21T12:01:22.692Z,1819.00
2023-05-21T12:02:22.825Z,1873.00
2023-05-21T12:03:22.816Z,1993.00
2023-05-21T12:04:22.653Z,2118.00
2023-05-21T12:05:22.704Z,2202.00
2023-05-21T12:06:22.810Z,2254.00
2023-05-21T12:07:22.632Z,2267.00
2023-05-21T12:08:22.625Z,2273.00
2023-05-21T12:09:22.640Z,2283.00
2023-05-21T12:10:22.684Z,2262.00
2023-05-21T12:11:22.640Z,2278.00
2023-05-21T12:12:22.648Z,2260.00
2023-05-21T12:13:22.619Z,2256.00
2023-05-21T12:14:22.633Z,2198.00
2023-05-21T12:15:22.582Z,2200.00
2023-05-21T12:16:22.615Z,2188.00
2023-05-21T12:17:22.570Z,2152.00
2023-05-21T12:18:22.609Z,2155.00
2023-05-21T12:19:22.637Z,2122.00
2023-05-21T12:20:22.623Z,2117.00
2023-05-21T12:21:22.648Z,2113.00
2023-05-21T12:22:22.679Z,2101.00